createdAt,value
2023-06-19T00:01:12.783Z,18.16
2023-06-19T00:03:40.187Z,18.08
2023-06-19T00:06:08.164Z,18.06
2023-06-19T00:08:37.144Z,17.96
2023-06-19T00:11:04.559Z,17.96
2023-06-19T00:13:34.341Z,17.89
2023-06-19T00:16:02.150Z,17.80
2023-06-19T00:18:30.123Z,17.80
2023-06-19T00:20:58.065Z,17.72
2023-06-19T00:23:25.454Z,17.62
2023-06-19T00:25:52.876Z,17.57
2023-06-19T00:28:21.363Z,17.55
2023-06-19T00:30:49.094Z,17.61
2023-06-19T00:33:16.448Z,17.53
2023-06-19T00:35:44.314Z,17.52
2023-06-19T00:38:11.813Z,17.45
2023-06-19T00:40:39.667Z,17.48
2023-06-19T00:43:07.634Z,17.50
2023-06-19T00:45:35.283Z,17.48
2023-06-19T00:48:03.104Z,17.41
2023-06-19T00:50:31.573Z,17.42
2023-06-19T00:53:00.914Z,17.39
2023-06-19T00:55:33.675Z,17.32
2023-06-19T00:58:02.277Z,17.32
2023-06-19T01:00:29.958Z,17.38
2023-06-19T01:02:59.515Z,17.38
2023-06-19T01:05:29.260Z,17.24
2023-06-19T01:08:16.064Z,17.18
2023-06-19T01:10:49.063Z,17.14
2023-06-19T01:14:01.424Z,17.22
2023-06-19T01:16:30.367Z,17.22
2023-06-19T01:18:57.817Z,17.20
2023-06-19T01:21:25.233Z,17.24
2023-06-19T01:23:52.672Z,17.33
2023-06-19T01:26:27.718Z,17.39
2023-06-19T01:28:56.275Z,17.37
2023-06-19T01:31:30.071Z,17.39
2023-06-19T01:33:57.811Z,17.53
2023-06-19T01:36:26.130Z,17.61
2023-06-19T01:38:56.841Z,17.61
2023-06-19T01:41:26.059Z,17.67
2023-06-19T01:43:54.507Z,17.68
2023-06-19T01:46:21.989Z,17.68
2023-06-19T01:48:49.422Z,17.49
2023-06-19T01:51:17.782Z,17.48
2023-06-19T01:53:45.105Z,17.56
2023-06-19T01:56:12.990Z,17.47
2023-06-19T01:58:40.320Z,17.35
2023-06-19T02:01:07.690Z,17.34
2023-06-19T02:03:35.129Z,17.31
2023-06-19T02:06:02.685Z,17.31
2023-06-19T02:08:30.037Z,17.36
2023-06-19T02:10:57.336Z,17.35
2023-06-19T02:13:24.841Z,17.35
2023-06-19T02:15:52.768Z,17.47
2023-06-19T02:18:20.330Z,17.50
2023-06-19T02:20:47.855Z,17.60
2023-06-19T02:23:16.686Z,17.67
2023-06-19T02:25:44.060Z,17.76
2023-06-19T02:28:11.443Z,17.93
2023-06-19T02:30:38.866Z,18.05
2023-06-19T02:33:06.380Z,18.17
2023-06-19T02:35:34.087Z,18.31
2023-06-19T02:38:01.507Z,18.35
2023-06-19T02:40:28.927Z,18.53
2023-06-19T02:42:56.369Z,18.65
2023-06-19T02:45:23.837Z,18.70
2023-06-19T02:47:53.424Z,18.71
2023-06-19T02:50:21.254Z,18.78
2023-06-19T02:52:48.912Z,18.78
2023-06-19T02:55:16.307Z,18.87
2023-06-19T02:57:43.742Z,18.85
2023-06-19T03:00:13.411Z,18.90
2023-06-19T03:02:44.560Z,18.86
2023-06-19T03:05:16.318Z,18.85
2023-06-19T03:07:44.029Z,18.81
2023-06-19T03:10:11.651Z,18.87
2023-06-19T03:12:38.912Z,19.00
2023-06-19T03:15:06.865Z,19.01
2023-06-19T03:17:37.362Z,18.77
2023-06-19T03:20:10.722Z,18.88
2023-06-19T03:22:38.245Z,18.92
2023-06-19T03:25:05.936Z,18.98
2023-06-19T03:27:33.562Z,19.00
2023-06-19T03:30:02.423Z,19.08
2023-06-19T03:32:38.306Z,19.17
2023-06-19T03:35:09.408Z,19.06
2023-06-19T03:37:41.730Z,19.15
2023-06-19T03:40:14.674Z,19.14
2023-06-19T03:42:44.551Z,19.24
2023-06-19T03:45:13.683Z,19.23
2023-06-19T03:47:41.176Z,19.21
2023-06-19T03:50:20.653Z,19.29
2023-06-19T03:52:58.377Z,19.36
2023-06-19T03:55:26.040Z,19.41
2023-06-19T03:57:54.294Z,19.59
2023-06-19T04:00:24.071Z,19.60
2023-06-19T04:02:52.794Z,19.66
2023-06-19T04:05:21.118Z,19.73
2023-06-19T04:07:48.689Z,19.81
2023-06-19T04:10:16.701Z,19.81
2023-06-19T04:12:46.696Z,19.89
2023-06-19T04:15:14.124Z,19.99
2023-06-19T04:17:41.601Z,20.10
2023-06-19T04:20:20.707Z,20.24
2023-06-19T04:22:48.990Z,20.34
2023-06-19T04:25:16.317Z,20.41
2023-06-19T04:27:46.083Z,20.39
2023-06-19T04:30:13.886Z,20.45
2023-06-19T04:32:42.312Z,20.43
2023-06-19T04:35:10.862Z,20.46
2023-06-19T04:37:38.678Z,20.40
2023-06-19T04:40:08.494Z,20.39
2023-06-19T04:42:35.971Z,20.45
2023-06-19T04:45:03.613Z,20.55
2023-06-19T04:47:43.555Z,20.58
2023-06-19T04:50:18.970Z,20.65
2023-06-19T04:52:48.757Z,20.68
2023-06-19T04:55:16.153Z,20.78
2023-06-19T04:57:43.552Z,20.82
2023-06-19T05:00:14.076Z,20.85
2023-06-19T05:02:45.364Z,20.83
2023-06-19T05:05:12.914Z,20.77
2023-06-19T05:07:40.988Z,20.82
2023-06-19T05:10:09.188Z,20.98
2023-06-19T05:12:36.977Z,20.98
2023-06-19T05:15:05.105Z,21.05
2023-06-19T05:17:33.918Z,21.04
2023-06-19T05:20:02.712Z,21.10
2023-06-19T05:22:33.455Z,21.15
2023-06-19T05:25:02.664Z,21.26
2023-06-19T05:27:31.931Z,21.23
2023-06-19T05:30:00.741Z,21.37
2023-06-19T05:32:29.225Z,21.42
2023-06-19T05:34:56.666Z,21.46
2023-06-19T05:37:23.954Z,21.57
2023-06-19T05:39:53.135Z,21.50
2023-06-19T05:42:20.592Z,21.41
2023-06-19T05:44:48.172Z,21.46
2023-06-19T05:47:18.382Z,21.43
2023-06-19T05:49:45.802Z,21.51
2023-06-19T05:52:13.619Z,21.58
2023-06-19T05:54:41.259Z,21.55
2023-06-19T05:57:08.912Z,21.62
2023-06-19T05:59:36.210Z,21.66
2023-06-19T06:02:05.118Z,21.69
2023-06-19T06:04:34.081Z,21.55
2023-06-19T06:07:02.118Z,21.60
2023-06-19T06:09:29.669Z,21.60
2023-06-19T06:11:57.204Z,21.67
2023-06-19T06:14:24.777Z,21.60
2023-06-19T06:16:52.096Z,21.66
2023-06-19T06:19:22.597Z,21.70
2023-06-19T06:21:51.028Z,21.71
2023-06-19T06:24:19.825Z,21.65
2023-06-19T06:26:48.339Z,21.62
2023-06-19T06:29:16.725Z,21.68
2023-06-19T06:31:49.094Z,21.71
2023-06-19T06:34:16.408Z,21.78
2023-06-19T06:36:52.848Z,21.76
2023-06-19T06:39:29.656Z,21.88
2023-06-19T06:41:57.529Z,21.92
2023-06-19T06:44:25.000Z,21.83
2023-06-19T06:46:52.952Z,21.85
2023-06-19T06:49:20.384Z,21.98
2023-06-19T06:51:47.965Z,21.96
2023-06-19T06:54:15.535Z,22.01
2023-06-19T06:56:43.449Z,21.99
2023-06-19T06:59:10.834Z,21.93
2023-06-19T07:01:38.871Z,21.98
2023-06-19T07:04:06.342Z,21.98
2023-06-19T07:06:33.699Z,21.97
2023-06-19T07:09:02.137Z,22.01
2023-06-19T07:11:29.606Z,21.99
2023-06-19T07:13:57.099Z,22.02
2023-06-19T07:16:24.668Z,22.07
2023-06-19T07:18:53.367Z,22.09
2023-06-19T07:21:21.549Z,22.03
2023-06-19T07:23:49.583Z,22.09
2023-06-19T07:26:17.236Z,22.07
2023-06-19T07:28:46.457Z,22.13
2023-06-19T07:31:14.964Z,22.23
2023-06-19T07:33:42.728Z,22.18
2023-06-19T07:36:15.339Z,22.23
2023-06-19T07:38:47.496Z,22.17
2023-06-19T07:41:14.957Z,22.11
2023-06-19T07:43:48.216Z,22.12
2023-06-19T07:46:17.164Z,22.24
2023-06-19T07:48:44.789Z,22.23
2023-06-19T07:51:12.539Z,22.32
2023-06-19T07:53:41.523Z,22.19
2023-06-19T07:56:09.934Z,22.17
2023-06-19T07:58:38.491Z,22.22
2023-06-19T08:01:06.381Z,22.14
2023-06-19T08:03:35.086Z,22.12
2023-06-19T08:06:03.695Z,22.08
2023-06-19T08:08:31.403Z,22.13
2023-06-19T08:10:58.823Z,22.14
2023-06-19T08:13:26.699Z,22.13
2023-06-19T08:15:54.478Z,22.12
2023-06-19T08:18:22.306Z,22.17
2023-06-19T08:20:50.071Z,22.13
2023-06-19T08:23:17.515Z,22.12
2023-06-19T08:25:46.319Z,22.05
2023-06-19T08:28:14.829Z,22.14
2023-06-19T08:30:44.039Z,22.17
2023-06-19T08:33:12.004Z,22.22
2023-06-19T08:35:39.897Z,22.30
2023-06-19T08:38:08.596Z,22.33
2023-06-19T08:40:36.320Z,22.39
2023-06-19T08:43:04.492Z,22.48
2023-06-19T08:45:31.902Z,22.56
2023-06-19T08:48:00.723Z,22.60
2023-06-19T08:50:28.456Z,22.59
2023-06-19T08:52:57.125Z,22.56
2023-06-19T08:55:29.273Z,22.60
2023-06-19T08:57:57.268Z,22.65
2023-06-19T09:00:30.623Z,22.68
2023-06-19T09:03:14.029Z,22.78
2023-06-19T09:05:51.652Z,22.74
2023-06-19T09:08:21.267Z,22.75
2023-06-19T09:11:02.194Z,22.74
2023-06-19T09:13:30.933Z,22.87
2023-06-19T09:16:03.488Z,22.91
2023-06-19T09:18:48.597Z,22.90
2023-06-19T09:21:25.274Z,22.85
2023-06-19T09:23:56.136Z,22.93
2023-06-19T09:26:31.824Z,22.89
2023-06-19T09:28:59.534Z,22.92
2023-06-19T09:31:35.258Z,23.12
2023-06-19T09:34:03.619Z,23.22
2023-06-19T09:36:33.835Z,23.23
2023-06-19T09:39:03.372Z,23.17
2023-06-19T09:41:32.141Z,23.18
2023-06-19T09:44:01.555Z,23.17
2023-06-19T09:46:34.980Z,23.17
2023-06-19T09:49:05.085Z,23.25
2023-06-19T09:51:36.949Z,23.33
2023-06-19T09:54:06.158Z,23.30
2023-06-19T09:56:34.332Z,23.31
2023-06-19T09:59:02.459Z,23.33
2023-06-19T10:01:33.500Z,23.42
2023-06-19T10:04:12.832Z,23.37
2023-06-19T10:06:48.357Z,23.33
2023-06-19T10:09:19.762Z,23.42
2023-06-19T10:11:54.151Z,23.51
2023-06-19T10:14:22.883Z,23.44
2023-06-19T10:16:50.595Z,23.34
2023-06-19T10:19:22.704Z,23.29
2023-06-19T10:21:56.682Z,23.31
2023-06-19T10:24:26.039Z,23.42
2023-06-19T10:27:12.292Z,23.47
2023-06-19T10:29:41.771Z,23.56
2023-06-19T10:32:14.948Z,23.58
2023-06-19T10:34:47.029Z,23.53
2023-06-19T10:37:15.360Z,23.55
2023-06-19T10:39:42.803Z,23.57
2023-06-19T10:42:11.569Z,23.51
2023-06-19T10:44:39.715Z,23.56
2023-06-19T10:47:08.889Z,23.58
2023-06-19T10:49:37.302Z,23.64
2023-06-19T10:52:05.211Z,23.72
2023-06-19T10:54:33.741Z,23.78
2023-06-19T10:57:06.206Z,23.65
2023-06-19T10:59:36.217Z,23.65
2023-06-19T11:02:03.949Z,23.69
2023-06-19T11:04:32.635Z,23.77
2023-06-19T11:07:06.705Z,23.80
2023-06-19T11:09:34.247Z,23.77
2023-06-19T11:12:02.729Z,23.71
2023-06-19T11:14:31.745Z,23.76
2023-06-19T11:17:01.713Z,23.83
2023-06-19T11:19:32.113Z,23.80
2023-06-19T11:21:59.710Z,23.87
2023-06-19T11:24:27.094Z,23.69
2023-06-19T11:26:57.277Z,23.85
2023-06-19T11:29:27.199Z,23.92
2023-06-19T11:32:07.037Z,23.92
2023-06-19T11:34:38.343Z,23.84
2023-06-19T11:37:26.889Z,23.89
2023-06-19T11:39:55.464Z,23.78
2023-06-19T11:42:22.952Z,23.89
2023-06-19T11:45:08.016Z,23.93
2023-06-19T11:47:36.309Z,23.90
2023-06-19T11:50:06.488Z,24.00
2023-06-19T11:52:35.262Z,24.06
2023-06-19T11:55:06.448Z,24.12
2023-06-19T11:57:34.745Z,24.04
2023-06-19T12:00:02.944Z,24.05
2023-06-19T12:02:40.787Z,24.11
2023-06-19T12:05:11.758Z,24.11
2023-06-19T12:07:40.592Z,24.19
2023-06-19T12:10:12.894Z,24.26
2023-06-19T12:12:40.301Z,24.30
2023-06-19T12:15:08.400Z,24.40
2023-06-19T12:17:37.424Z,24.37
2023-06-19T12:20:10.667Z,24.43
2023-06-19T12:22:39.782Z,24.27
2023-06-19T12:25:07.803Z,24.32
2023-06-19T12:27:37.852Z,24.39
2023-06-19T12:30:06.441Z,24.28
2023-06-19T12:32:36.232Z,24.28
2023-06-19T12:35:04.550Z,24.27
2023-06-19T12:37:34.965Z,24.21
2023-06-19T12:40:02.660Z,24.19
2023-06-19T12:42:35.442Z,24.18
2023-06-19T12:45:03.088Z,24.25
2023-06-19T12:47:34.462Z,24.23
2023-06-19T12:50:03.343Z,24.28
2023-06-19T12:52:32.928Z,24.30
2023-06-19T12:55:03.241Z,24.38
2023-06-19T12:57:35.656Z,24.33
2023-06-19T13:00:03.517Z,24.41
2023-06-19T13:02:35.484Z,24.40
2023-06-19T13:05:03.264Z,24.41
2023-06-19T13:07:34.654Z,24.43
2023-06-19T13:10:01.934Z,24.43
2023-06-19T13:12:31.260Z,24.42
2023-06-19T13:14:58.694Z,24.43
2023-06-19T13:17:26.043Z,24.40
2023-06-19T13:19:53.410Z,24.45
2023-06-19T13:22:22.911Z,24.43
2023-06-19T13:24:52.297Z,24.40
2023-06-19T13:27:20.296Z,24.40
2023-06-19T13:29:48.789Z,24.39
2023-06-19T13:32:17.917Z,24.39
2023-06-19T13:34:45.411Z,24.43
2023-06-19T13:37:12.786Z,24.53
2023-06-19T13:39:41.070Z,24.51
2023-06-19T13:42:08.834Z,24.56
2023-06-19T13:44:36.759Z,24.61
2023-06-19T13:47:06.124Z,24.51
2023-06-19T13:49:33.563Z,24.44
2023-06-19T13:52:01.492Z,24.52
2023-06-19T13:54:29.314Z,24.47
2023-06-19T13:56:56.700Z,24.48
2023-06-19T13:59:24.208Z,24.44
2023-06-19T14:01:51.478Z,24.49
2023-06-19T14:04:18.759Z,24.45
2023-06-19T14:06:46.053Z,24.46
2023-06-19T14:09:14.279Z,24.43
2023-06-19T14:11:41.668Z,24.49
2023-06-19T14:14:09.073Z,24.41
2023-06-19T14:16:38.693Z,24.34
2023-06-19T14:19:07.580Z,24.29
2023-06-19T14:21:36.324Z,24.33
2023-06-19T14:24:04.568Z,24.35
2023-06-19T14:26:31.959Z,24.38
2023-06-19T14:29:00.256Z,24.43
2023-06-19T14:31:27.856Z,24.45
2023-06-19T14:33:55.412Z,24.53
2023-06-19T14:36:23.018Z,24.54
2023-06-19T14:38:50.744Z,24.40
2023-06-19T14:41:18.168Z,24.33
2023-06-19T14:43:45.484Z,24.29
2023-06-19T14:46:18.044Z,24.28
2023-06-19T14:48:50.619Z,24.27
2023-06-19T14:51:17.878Z,24.28
2023-06-19T14:53:45.275Z,24.29
2023-06-19T14:56:13.049Z,24.25
2023-06-19T14:58:40.554Z,24.29
2023-06-19T15:01:08.051Z,24.32
2023-06-19T15:03:36.066Z,24.24
2023-06-19T15:06:05.029Z,24.25
2023-06-19T15:08:32.848Z,24.24
2023-06-19T15:11:00.619Z,24.21
2023-06-19T15:13:28.083Z,24.26
2023-06-19T15:15:55.559Z,24.26
2023-06-19T15:18:23.125Z,24.11
2023-06-19T15:20:50.578Z,24.06
2023-06-19T15:23:19.252Z,24.06
2023-06-19T15:25:46.748Z,24.07
2023-06-19T15:28:14.006Z,24.05
2023-06-19T15:30:41.368Z,24.02
2023-06-19T15:33:08.632Z,23.96
2023-06-19T15:35:36.165Z,23.96
2023-06-19T15:38:03.550Z,23.99
2023-06-19T15:40:30.849Z,24.00
2023-06-19T15:42:58.167Z,23.97
2023-06-19T15:45:25.494Z,23.97
2023-06-19T15:47:53.801Z,23.96
2023-06-19T15:50:21.337Z,23.90
2023-06-19T15:52:48.591Z,23.92
2023-06-19T15:55:16.027Z,23.88
2023-06-19T15:57:43.311Z,23.80
2023-06-19T16:00:12.499Z,23.68
2023-06-19T16:02:48.802Z,23.68
2023-06-19T16:05:19.148Z,23.59
2023-06-19T16:07:46.537Z,23.57
2023-06-19T16:10:15.904Z,23.54
2023-06-19T16:12:43.384Z,23.53
2023-06-19T16:15:14.276Z,23.58
2023-06-19T16:17:41.893Z,23.55
2023-06-19T16:20:10.161Z,23.50
2023-06-19T16:22:37.664Z,23.42
2023-06-19T16:25:05.350Z,23.34
2023-06-19T16:27:32.704Z,23.27
2023-06-19T16:30:00.089Z,23.25
2023-06-19T16:32:27.497Z,23.22
2023-06-19T16:34:54.718Z,23.18
2023-06-19T16:37:22.020Z,23.14
2023-06-19T16:39:49.333Z,23.08
2023-06-19T16:42:16.951Z,23.01
2023-06-19T16:44:44.316Z,22.97
2023-06-19T16:47:11.746Z,22.91
2023-06-19T16:49:39.013Z,22.92
2023-06-19T16:52:07.066Z,22.86
2023-06-19T16:54:34.520Z,22.83
2023-06-19T16:57:01.933Z,22.76
2023-06-19T16:59:29.315Z,22.73
2023-06-19T17:01:56.782Z,22.60
2023-06-19T17:04:24.143Z,22.63
2023-06-19T17:06:51.446Z,22.62
2023-06-19T17:09:18.722Z,22.57
2023-06-19T17:11:46.166Z,22.50
2023-06-19T17:14:13.620Z,22.46
2023-06-19T17:16:43.703Z,22.38
2023-06-19T17:19:11.056Z,22.29
2023-06-19T17:21:38.459Z,22.30
2023-06-19T17:24:06.112Z,22.22
2023-06-19T17:26:33.669Z,22.14
2023-06-19T17:29:02.392Z,22.13
2023-06-19T17:31:29.831Z,22.07
2023-06-19T17:33:57.243Z,22.04
2023-06-19T17:36:24.616Z,21.97
2023-06-19T17:38:52.043Z,21.93
2023-06-19T17:41:19.402Z,21.90
2023-06-19T17:43:46.852Z,21.88
2023-06-19T17:46:14.369Z,21.81
2023-06-19T17:48:42.900Z,21.81
2023-06-19T17:51:10.299Z,21.67
2023-06-19T17:53:37.666Z,21.57
2023-06-19T17:56:06.147Z,21.53
2023-06-19T17:58:33.691Z,21.50
2023-06-19T18:01:01.486Z,21.41
2023-06-19T18:03:29.440Z,21.38
2023-06-19T18:05:56.982Z,21.30
2023-06-19T18:08:24.391Z,21.23
2023-06-19T18:10:51.905Z,21.17
2023-06-19T18:13:19.311Z,21.15
2023-06-19T18:15:55.600Z,21.21
2023-06-19T18:18:30.196Z,21.30
2023-06-19T18:20:57.533Z,21.33
2023-06-19T18:23:25.286Z,21.31
2023-06-19T18:25:52.849Z,21.33
2023-06-19T18:28:20.078Z,21.32
2023-06-19T18:30:47.333Z,21.26
2023-06-19T18:33:14.684Z,21.24
2023-06-19T18:35:41.950Z,21.19
2023-06-19T18:38:09.414Z,21.17
2023-06-19T18:40:36.688Z,21.16
2023-06-19T18:43:03.943Z,21.05
2023-06-19T18:45:31.946Z,21.05
2023-06-19T18:47:59.415Z,20.93
2023-06-19T18:50:27.230Z,20.87
2023-06-19T18:52:55.947Z,20.85
2023-06-19T18:55:23.521Z,20.77
2023-06-19T18:57:52.163Z,20.67
2023-06-19T19:00:19.860Z,20.61
2023-06-19T19:02:47.624Z,20.62
2023-06-19T19:05:15.309Z,20.61
2023-06-19T19:07:42.554Z,20.58
2023-06-19T19:10:11.050Z,20.55
2023-06-19T19:12:38.676Z,20.52
2023-06-19T19:15:07.312Z,20.49
2023-06-19T19:17:34.869Z,20.45
2023-06-19T19:20:07.495Z,20.40
2023-06-19T19:22:35.788Z,20.36
2023-06-19T19:25:03.336Z,20.32
2023-06-19T19:27:34.091Z,20.29
2023-06-19T19:30:02.643Z,20.16
2023-06-19T19:32:32.821Z,20.06
2023-06-19T19:35:00.207Z,20.01
2023-06-19T19:37:30.319Z,19.85
2023-06-19T19:39:58.155Z,19.83
2023-06-19T19:42:26.552Z,19.79
2023-06-19T19:44:54.513Z,19.69
2023-06-19T19:47:22.257Z,19.69
2023-06-19T19:49:49.618Z,19.68
2023-06-19T19:52:17.043Z,19.73
2023-06-19T19:54:44.471Z,19.61
2023-06-19T19:57:11.909Z,19.62
2023-06-19T19:59:39.234Z,19.57
2023-06-19T20:02:11.491Z,19.52
2023-06-19T20:04:39.719Z,19.49
2023-06-19T20:07:07.714Z,19.46
2023-06-19T20:09:35.127Z,19.41
2023-06-19T20:12:20.076Z,19.41
2023-06-19T20:14:49.328Z,19.42
2023-06-19T20:17:17.039Z,19.40
2023-06-19T20:19:44.608Z,19.42
2023-06-19T20:22:12.102Z,19.42
2023-06-19T20:24:39.614Z,19.34
2023-06-19T20:27:08.049Z,19.32
2023-06-19T20:29:35.453Z,19.24
2023-06-19T20:32:02.929Z,19.16
2023-06-19T20:34:30.578Z,19.12
2023-06-19T20:36:58.152Z,19.13
2023-06-19T20:39:26.291Z,19.17
2023-06-19T20:41:53.695Z,19.23
2023-06-19T20:44:21.081Z,19.24
2023-06-19T20:46:49.973Z,19.17
2023-06-19T20:49:17.479Z,19.12
2023-06-19T20:51:44.867Z,19.06
2023-06-19T20:54:12.384Z,19.03
2023-06-19T20:56:39.795Z,18.99
2023-06-19T20:59:07.220Z,18.95
2023-06-19T21:01:34.678Z,18.89
2023-06-19T21:04:03.000Z,18.83
2023-06-19T21:06:31.121Z,18.72
2023-06-19T21:09:00.690Z,18.61
2023-06-19T21:11:28.338Z,18.52
2023-06-19T21:13:55.628Z,18.50
2023-06-19T21:16:23.026Z,18.36
2023-06-19T21:18:50.477Z,18.36
2023-06-19T21:21:17.914Z,18.38
2023-06-19T21:23:45.331Z,18.23
2023-06-19T21:26:14.541Z,18.05
2023-06-19T21:28:41.959Z,18.06
2023-06-19T21:31:09.431Z,17.99
2023-06-19T21:33:39.284Z,18.07
2023-06-19T21:36:06.921Z,17.99
2023-06-19T21:38:35.535Z,17.94
2023-06-19T21:41:03.636Z,17.96
2023-06-19T21:43:31.102Z,17.92
2023-06-19T21:45:59.837Z,17.89
2023-06-19T21:48:27.648Z,17.88
2023-06-19T21:50:55.207Z,17.77
2023-06-19T21:53:22.898Z,17.70
2023-06-19T21:55:50.205Z,17.58
2023-06-19T21:58:17.521Z,17.47
2023-06-19T22:00:44.898Z,17.39
2023-06-19T22:03:12.410Z,17.36
2023-06-19T22:05:40.094Z,17.31
2023-06-19T22:08:07.754Z,17.35
2023-06-19T22:10:35.108Z,17.49
2023-06-19T22:13:02.589Z,17.55
2023-06-19T22:15:29.982Z,17.62
2023-06-19T22:17:57.533Z,17.63
2023-06-19T22:20:25.204Z,17.54
2023-06-19T22:22:52.880Z,17.45
2023-06-19T22:25:20.223Z,17.45
2023-06-19T22:27:49.337Z,17.45
2023-06-19T22:30:17.170Z,17.54
2023-06-19T22:32:44.662Z,17.44
2023-06-19T22:35:12.148Z,17.46
2023-06-19T22:37:40.324Z,17.42
2023-06-19T22:40:11.392Z,17.35
2023-06-19T22:42:39.483Z,17.37
2023-06-19T22:45:08.038Z,17.38
2023-06-19T22:47:39.944Z,17.35
2023-06-19T22:50:09.354Z,17.31
2023-06-19T22:52:37.140Z,17.42
2023-06-19T22:55:05.514Z,17.44
2023-06-19T22:57:36.597Z,17.30
2023-06-19T23:00:13.544Z,17.31
2023-06-19T23:02:43.497Z,17.22
2023-06-19T23:05:12.791Z,17.29
2023-06-19T23:07:42.385Z,17.19
2023-06-19T23:10:10.098Z,17.09
2023-06-19T23:12:38.535Z,17.06
2023-06-19T23:15:08.379Z,17.08
2023-06-19T23:17:37.796Z,17.10
2023-06-19T23:20:11.076Z,16.98
2023-06-19T23:22:39.165Z,16.86
2023-06-19T23:25:06.803Z,16.85
2023-06-19T23:27:37.050Z,16.91
2023-06-19T23:30:05.617Z,16.98
2023-06-19T23:32:33.670Z,16.96
2023-06-19T23:35:01.276Z,16.98
2023-06-19T23:37:31.075Z,17.04
2023-06-19T23:39:58.531Z,17.01
2023-06-19T23:42:26.002Z,17.00
2023-06-19T23:44:53.468Z,17.04
2023-06-19T23:47:21.122Z,17.08
2023-06-19T23:49:49.387Z,17.06
2023-06-19T23:52:21.704Z,17.16
2023-06-19T23:54:54.380Z,17.22
2023-06-19T23:57:21.806Z,17.22
2023-06-19T23:59:49.234Z,17.27
